createdAt,value
2019-04-25T00:02:33.139Z,15.00
2019-04-25T00:05:08.425Z,14.96
2019-04-25T00:07:43.621Z,14.90
2019-04-25T00:10:17.941Z,14.84
2019-04-25T00:12:51.869Z,14.78
2019-04-25T00:15:25.835Z,14.71
2019-04-25T00:18:00.098Z,14.65
2019-04-25T00:20:35.605Z,14.59
2019-04-25T00:23:14.130Z,14.52
2019-04-25T00:26:05.873Z,14.43
2019-04-25T00:28:40.621Z,14.38
2019-04-25T00:31:16.080Z,14.27
2019-04-25T00:33:50.103Z,14.13
2019-04-25T00:36:24.347Z,14.03
2019-04-25T00:38:58.207Z,13.95
2019-04-25T00:41:34.074Z,13.88
2019-04-25T00:44:07.900Z,13.79
2019-04-25T00:46:44.843Z,13.71
2019-04-25T00:49:17.284Z,13.55
2019-04-25T00:51:52.363Z,13.61
2019-04-25T00:54:26.708Z,13.57
2019-04-25T00:57:02.119Z,13.54
2019-04-25T00:59:44.298Z,13.51
2019-04-25T01:02:23.592Z,13.47
2019-04-25T01:04:57.735Z,13.43
2019-04-25T01:07:32.436Z,13.39
2019-04-25T01:10:07.772Z,13.34
2019-04-25T01:12:41.790Z,13.27
2019-04-25T01:15:15.715Z,13.23
2019-04-25T01:17:51.238Z,13.20
2019-04-25T01:20:25.491Z,13.19
2019-04-25T01:23:00.814Z,13.17
2019-04-25T01:25:40.957Z,13.12
2019-04-25T01:28:09.825Z,13.07
2019-04-25T01:30:44.051Z,13.04
2019-04-25T01:33:17.909Z,12.99
2019-04-25T01:35:56.949Z,12.97
2019-04-25T01:38:33.529Z,12.95
2019-04-25T01:41:27.363Z,12.88
2019-04-25T01:44:05.614Z,12.82
2019-04-25T01:46:41.172Z,12.77
2019-04-25T01:49:15.029Z,12.73
2019-04-25T01:51:48.944Z,12.70
2019-04-25T01:54:23.802Z,12.66
2019-04-25T01:56:57.918Z,12.63
2019-04-25T01:59:33.715Z,12.59
2019-04-25T02:02:09.461Z,12.54
2019-04-25T02:04:44.308Z,12.50
2019-04-25T02:07:18.678Z,12.49
2019-04-25T02:09:53.952Z,12.46
2019-04-25T02:12:29.165Z,12.43
2019-04-25T02:15:05.955Z,12.39
2019-04-25T02:17:38.669Z,12.35
2019-04-25T02:20:13.955Z,12.32
2019-04-25T02:22:48.093Z,12.31
2019-04-25T02:25:24.561Z,12.26
2019-04-25T02:28:01.509Z,12.25
2019-04-25T02:30:35.588Z,12.24
2019-04-25T02:33:09.761Z,12.23
2019-04-25T02:35:46.508Z,12.20
2019-04-25T02:38:19.251Z,12.18
2019-04-25T02:40:57.200Z,12.17
2019-04-25T02:43:29.014Z,12.16
2019-04-25T02:46:07.604Z,12.15
2019-04-25T02:48:43.987Z,12.13
2019-04-25T02:51:19.103Z,12.08
2019-04-25T02:53:57.812Z,12.04
2019-04-25T02:56:37.603Z,12.02
2019-04-25T02:59:09.121Z,11.99
2019-04-25T03:01:44.493Z,11.97
2019-04-25T03:04:18.729Z,11.96
2019-04-25T03:06:51.940Z,11.94
2019-04-25T03:09:25.701Z,11.90
2019-04-25T03:11:59.969Z,11.88
2019-04-25T03:14:35.268Z,11.86
2019-04-25T03:17:10.379Z,11.84
2019-04-25T03:19:45.825Z,11.84
2019-04-25T03:22:31.106Z,11.84
2019-04-25T03:25:10.807Z,11.85
2019-04-25T03:27:44.001Z,11.84
2019-04-25T03:30:18.431Z,11.85
2019-04-25T03:32:52.435Z,11.84
2019-04-25T03:35:26.393Z,11.83
2019-04-25T03:38:01.150Z,11.82
2019-04-25T03:40:35.058Z,11.83
2019-04-25T03:43:09.069Z,11.85
2019-04-25T03:45:43.219Z,11.85
2019-04-25T03:48:17.760Z,11.86
2019-04-25T03:50:51.571Z,11.85
2019-04-25T03:53:25.436Z,11.87
2019-04-25T03:55:59.278Z,11.86
2019-04-25T03:58:33.793Z,11.89
2019-04-25T04:01:09.299Z,11.89
2019-04-25T04:03:44.063Z,11.88
2019-04-25T04:06:18.124Z,11.85
2019-04-25T04:08:53.784Z,11.84
2019-04-25T04:11:27.710Z,11.82
2019-04-25T04:14:01.541Z,11.83
2019-04-25T04:16:36.904Z,11.82
2019-04-25T04:19:10.880Z,11.83
2019-04-25T04:21:53.198Z,11.82
2019-04-25T04:24:28.832Z,11.84
2019-04-25T04:27:09.042Z,11.86
2019-04-25T04:29:44.831Z,11.91
2019-04-25T04:32:18.597Z,11.97
2019-04-25T04:34:53.670Z,12.04
2019-04-25T04:37:27.803Z,12.11
2019-04-25T04:40:03.420Z,12.19
2019-04-25T04:42:37.359Z,12.27
2019-04-25T04:45:12.412Z,12.35
2019-04-25T04:47:47.224Z,12.46
2019-04-25T04:50:21.168Z,12.56
2019-04-25T04:52:55.157Z,12.67
2019-04-25T04:55:29.159Z,12.81
2019-04-25T04:58:04.247Z,13.01
2019-04-25T05:00:39.785Z,13.22
2019-04-25T05:03:18.845Z,13.44
2019-04-25T05:06:14.866Z,13.67
2019-04-25T05:08:49.569Z,13.83
2019-04-25T05:11:25.225Z,14.04
2019-04-25T05:13:59.172Z,14.22
2019-04-25T05:16:33.277Z,14.36
2019-04-25T05:19:06.319Z,14.48
2019-04-25T05:21:40.206Z,14.68
2019-04-25T05:24:16.041Z,14.77
2019-04-25T05:26:49.719Z,14.81
2019-04-25T05:29:26.502Z,14.87
2019-04-25T05:31:59.300Z,14.82
2019-04-25T05:34:34.437Z,14.88
2019-04-25T05:37:08.647Z,14.96
2019-04-25T05:39:43.377Z,15.00
2019-04-25T05:42:28.067Z,15.05
2019-04-25T05:45:02.057Z,15.01
2019-04-25T05:47:35.977Z,15.03
2019-04-25T05:50:10.048Z,15.20
2019-04-25T05:52:43.887Z,15.52
2019-04-25T05:55:19.902Z,15.82
2019-04-25T05:57:53.710Z,16.15
2019-04-25T06:00:27.131Z,16.42
2019-04-25T06:03:01.049Z,16.61
2019-04-25T06:05:35.018Z,16.86
2019-04-25T06:08:08.116Z,17.06
2019-04-25T06:10:45.207Z,17.30
2019-04-25T06:13:21.687Z,17.47
2019-04-25T06:15:57.881Z,17.61
2019-04-25T06:18:36.117Z,17.78
2019-04-25T06:21:13.215Z,18.04
2019-04-25T06:24:05.356Z,18.27
2019-04-25T06:26:40.913Z,18.45
2019-04-25T06:29:14.897Z,18.55
2019-04-25T06:31:48.123Z,18.57
2019-04-25T06:34:22.018Z,18.67
2019-04-25T06:36:55.913Z,18.67
2019-04-25T06:39:29.861Z,18.83
2019-04-25T06:42:04.093Z,18.95
2019-04-25T06:44:39.761Z,18.96
2019-04-25T06:47:25.404Z,19.18
2019-04-25T06:49:59.449Z,19.45
2019-04-25T06:52:35.340Z,19.72
2019-04-25T06:55:09.631Z,19.88
2019-04-25T06:57:44.142Z,20.13
2019-04-25T07:00:19.853Z,20.09
2019-04-25T07:02:53.721Z,20.23
2019-04-25T07:05:33.977Z,20.53
2019-04-25T07:08:03.473Z,20.66
2019-04-25T07:10:36.595Z,20.89
2019-04-25T07:13:10.599Z,21.09
2019-04-25T07:15:46.921Z,21.30
2019-04-25T07:18:24.806Z,21.31
2019-04-25T07:20:58.695Z,21.24
2019-04-25T07:23:33.397Z,21.36
2019-04-25T07:26:09.109Z,21.71
2019-04-25T07:28:44.961Z,22.08
2019-04-25T07:31:37.067Z,22.40
2019-04-25T07:34:15.500Z,22.68
2019-04-25T07:36:49.365Z,22.79
2019-04-25T07:39:23.606Z,22.96
2019-04-25T07:41:57.866Z,22.77
2019-04-25T07:44:42.889Z,22.71
2019-04-25T07:47:08.249Z,22.91
2019-04-25T07:49:43.294Z,23.16
2019-04-25T07:52:17.633Z,23.38
2019-04-25T07:54:51.529Z,23.58
2019-04-25T07:57:25.457Z,24.01
2019-04-25T07:59:59.529Z,24.45
2019-04-25T08:02:35.079Z,24.90
2019-04-25T08:05:14.477Z,25.19
2019-04-25T08:07:48.603Z,25.45
2019-04-25T08:10:24.733Z,25.69
2019-04-25T08:12:58.555Z,26.14
2019-04-25T08:15:40.467Z,26.32
2019-04-25T08:18:14.744Z,26.54
2019-04-25T08:20:49.824Z,26.88
2019-04-25T08:23:24.785Z,26.86
2019-04-25T08:25:58.803Z,26.79
2019-04-25T08:28:34.469Z,27.05
2019-04-25T08:31:08.425Z,27.66
2019-04-25T08:33:43.493Z,27.95
2019-04-25T08:36:18.047Z,28.21
2019-04-25T08:38:53.492Z,28.45
2019-04-25T08:41:27.535Z,29.01
2019-04-25T08:44:01.482Z,28.75
2019-04-25T08:46:36.829Z,28.93
2019-04-25T08:49:21.650Z,29.19
2019-04-25T08:51:57.156Z,29.60
2019-04-25T08:54:39.720Z,29.57
2019-04-25T08:57:28.128Z,29.39
2019-04-25T09:00:04.251Z,28.86
2019-04-25T09:02:44.849Z,28.97
2019-04-25T09:05:26.937Z,29.07
2019-04-25T09:08:00.992Z,28.61
2019-04-25T09:10:37.052Z,28.69
2019-04-25T09:13:10.701Z,28.93
2019-04-25T09:15:45.763Z,29.34
2019-04-25T09:18:19.737Z,29.20
2019-04-25T09:20:54.094Z,29.30
2019-04-25T09:23:29.515Z,30.04
2019-04-25T09:26:04.018Z,30.47
2019-04-25T09:28:40.760Z,30.51
2019-04-25T09:31:14.807Z,30.64
2019-04-25T09:33:54.177Z,31.08
2019-04-25T09:36:27.047Z,31.54
2019-04-25T09:39:03.783Z,31.34
2019-04-25T09:41:37.950Z,31.21
2019-04-25T09:44:14.414Z,31.46
2019-04-25T09:46:48.561Z,31.64
2019-04-25T09:49:25.117Z,31.73
2019-04-25T09:52:00.631Z,31.55
2019-04-25T09:54:36.395Z,31.11
2019-04-25T09:57:13.518Z,31.13
2019-04-25T09:59:48.155Z,31.50
2019-04-25T10:02:23.326Z,31.29
2019-04-25T10:04:57.121Z,31.22
2019-04-25T10:07:31.067Z,31.15
2019-04-25T10:10:06.991Z,31.57
2019-04-25T10:12:41.152Z,31.83
2019-04-25T10:15:44.098Z,31.89
2019-04-25T10:18:18.018Z,31.88
2019-04-25T10:20:54.167Z,32.25
2019-04-25T10:23:28.529Z,32.27
2019-04-25T10:26:03.848Z,32.18
2019-04-25T10:28:38.725Z,32.03
2019-04-25T10:31:13.724Z,31.71
2019-04-25T10:33:48.645Z,31.68
2019-04-25T10:36:22.982Z,31.53
2019-04-25T10:39:06.870Z,30.91
2019-04-25T10:41:35.880Z,30.71
2019-04-25T10:44:10.326Z,30.69
2019-04-25T10:46:46.846Z,30.96
2019-04-25T10:49:20.251Z,30.51
2019-04-25T10:51:54.531Z,30.26
2019-04-25T10:54:28.498Z,30.55
2019-04-25T10:57:02.490Z,30.69
2019-04-25T10:59:36.501Z,30.66
2019-04-25T11:02:11.479Z,30.65
2019-04-25T11:05:03.549Z,30.07
2019-04-25T11:07:37.565Z,29.50
2019-04-25T11:10:11.628Z,28.79
2019-04-25T11:12:47.335Z,27.82
2019-04-25T11:15:23.374Z,27.25
2019-04-25T11:17:57.477Z,27.02
2019-04-25T11:20:31.778Z,26.73
2019-04-25T11:23:05.681Z,26.64
2019-04-25T11:25:39.627Z,26.52
2019-04-25T11:28:14.358Z,26.62
2019-04-25T11:30:48.496Z,26.69
2019-04-25T11:33:22.980Z,26.60
2019-04-25T11:35:58.507Z,26.25
2019-04-25T11:38:49.708Z,25.94
2019-04-25T11:41:24.844Z,25.86
2019-04-25T11:44:00.458Z,25.92
2019-04-25T11:46:34.579Z,25.99
2019-04-25T11:49:07.832Z,25.83
2019-04-25T11:51:41.841Z,25.82
2019-04-25T11:54:16.672Z,25.88
2019-04-25T11:56:51.314Z,25.93
2019-04-25T11:59:25.468Z,25.79
2019-04-25T12:01:59.703Z,25.65
2019-04-25T12:04:33.527Z,25.51
2019-04-25T12:07:08.615Z,25.43
2019-04-25T12:09:45.524Z,25.31
2019-04-25T12:12:18.836Z,25.20
2019-04-25T12:14:54.991Z,25.13
2019-04-25T12:17:28.252Z,25.27
2019-04-25T12:20:03.484Z,25.28
2019-04-25T12:22:37.725Z,25.22
2019-04-25T12:25:10.845Z,25.18
2019-04-25T12:27:48.092Z,25.11
2019-04-25T12:30:36.158Z,25.07
2019-04-25T12:32:56.978Z,25.09
2019-04-25T12:35:30.813Z,25.04
2019-04-25T12:38:04.692Z,24.96
2019-04-25T12:40:37.801Z,25.00
2019-04-25T12:43:13.755Z,25.05
2019-04-25T12:46:04.528Z,25.06
2019-04-25T12:48:38.410Z,25.27
2019-04-25T12:51:13.470Z,25.46
2019-04-25T12:53:48.011Z,25.56
2019-04-25T12:56:24.569Z,25.30
2019-04-25T12:58:57.417Z,25.09
2019-04-25T13:01:31.323Z,25.02
2019-04-25T13:04:05.277Z,24.91
2019-04-25T13:06:40.498Z,24.96
2019-04-25T13:09:14.523Z,24.95
2019-04-25T13:11:47.863Z,24.87
2019-04-25T13:14:21.766Z,24.78
2019-04-25T13:16:55.639Z,24.72
2019-04-25T13:19:29.454Z,24.62
2019-04-25T13:22:03.519Z,24.54
2019-04-25T13:24:37.497Z,24.53
2019-04-25T13:27:13.886Z,24.44
2019-04-25T13:30:01.516Z,24.29
2019-04-25T13:32:49.325Z,24.22
2019-04-25T13:35:27.865Z,24.18
2019-04-25T13:38:01.868Z,24.23
2019-04-25T13:40:34.969Z,24.36
2019-04-25T13:43:08.784Z,24.46
2019-04-25T13:45:42.689Z,24.59
2019-04-25T13:48:16.647Z,24.68
2019-04-25T13:50:49.805Z,24.75
2019-04-25T13:53:24.654Z,24.77
2019-04-25T13:55:59.690Z,24.74
2019-04-25T13:58:34.319Z,24.74
2019-04-25T14:01:13.223Z,24.76
2019-04-25T14:03:45.624Z,24.71
2019-04-25T14:06:20.078Z,24.72
2019-04-25T14:08:54.781Z,24.53
2019-04-25T14:11:28.975Z,24.42
2019-04-25T14:14:02.912Z,24.42
2019-04-25T14:16:37.684Z,24.38
2019-04-25T14:19:27.678Z,24.47
2019-04-25T14:22:04.310Z,24.59
2019-04-25T14:24:38.282Z,24.61
2019-04-25T14:27:14.839Z,24.53
2019-04-25T14:29:48.958Z,24.40
2019-04-25T14:32:30.071Z,24.35
2019-04-25T14:35:08.711Z,24.39
2019-04-25T14:37:45.568Z,24.40
2019-04-25T14:40:20.485Z,24.41
2019-04-25T14:43:09.975Z,24.45
2019-04-25T14:45:46.272Z,24.52
2019-04-25T14:48:24.762Z,24.46
2019-04-25T14:50:59.416Z,24.36
2019-04-25T14:53:35.145Z,24.21
2019-04-25T14:56:21.515Z,24.10
2019-04-25T14:58:57.240Z,24.01
2019-04-25T15:01:44.248Z,23.94
2019-04-25T15:04:08.076Z,23.89
2019-04-25T15:06:45.967Z,23.84
2019-04-25T15:09:20.967Z,23.85
2019-04-25T15:11:55.385Z,23.83
2019-04-25T15:14:29.809Z,23.83
2019-04-25T15:17:05.304Z,23.81
2019-04-25T15:19:39.353Z,23.75
2019-04-25T15:22:14.646Z,23.69
2019-04-25T15:24:49.231Z,23.62
2019-04-25T15:27:24.106Z,23.55
2019-04-25T15:29:59.225Z,23.54
2019-04-25T15:32:35.191Z,23.58
2019-04-25T15:35:10.816Z,23.61
2019-04-25T15:37:49.069Z,23.65
2019-04-25T15:40:25.254Z,23.65
2019-04-25T15:43:19.231Z,23.64
2019-04-25T15:46:03.956Z,23.57
2019-04-25T15:48:38.538Z,23.53
2019-04-25T15:51:12.912Z,23.52
2019-04-25T15:53:47.043Z,23.49
2019-04-25T15:56:21.233Z,23.42
2019-04-25T15:58:55.258Z,23.37
2019-04-25T16:01:28.550Z,23.26
2019-04-25T16:04:02.394Z,23.17
2019-04-25T16:06:36.377Z,23.08
2019-04-25T16:09:10.525Z,23.04
2019-04-25T16:11:47.113Z,23.00
2019-04-25T16:14:21.113Z,22.94
2019-04-25T16:16:54.157Z,22.93
2019-04-25T16:19:28.241Z,22.91
2019-04-25T16:22:02.275Z,22.90
2019-04-25T16:24:36.742Z,22.88
2019-04-25T16:27:12.437Z,22.88
2019-04-25T16:29:46.286Z,22.87
2019-04-25T16:32:21.886Z,22.87
2019-04-25T16:34:55.850Z,22.86
2019-04-25T16:37:30.359Z,22.84
2019-04-25T16:40:05.762Z,22.81
2019-04-25T16:42:39.849Z,22.80
2019-04-25T16:45:13.086Z,22.77
2019-04-25T16:47:46.896Z,22.73
2019-04-25T16:50:20.804Z,22.67
2019-04-25T16:52:54.996Z,22.65
2019-04-25T16:55:29.493Z,22.60
2019-04-25T16:58:04.649Z,22.56
2019-04-25T17:00:40.839Z,22.47
2019-04-25T17:03:16.236Z,22.40
2019-04-25T17:05:50.186Z,22.33
2019-04-25T17:08:24.035Z,22.27
2019-04-25T17:10:58.291Z,22.23
2019-04-25T17:13:34.030Z,22.17
2019-04-25T17:16:15.723Z,22.14
2019-04-25T17:19:00.407Z,22.08
2019-04-25T17:21:34.792Z,22.03
2019-04-25T17:24:08.876Z,22.00
2019-04-25T17:26:42.892Z,21.96
2019-04-25T17:29:17.589Z,21.92
2019-04-25T17:31:55.881Z,21.86
2019-04-25T17:34:49.710Z,21.80
2019-04-25T17:37:34.675Z,21.76
2019-04-25T17:40:13.061Z,21.72
2019-04-25T17:42:46.926Z,21.62
2019-04-25T17:45:22.525Z,21.58
2019-04-25T17:47:56.383Z,21.54
2019-04-25T17:50:30.232Z,21.50
2019-04-25T17:53:04.238Z,21.44
2019-04-25T17:55:37.451Z,21.41
2019-04-25T17:58:11.474Z,21.36
2019-04-25T18:00:45.779Z,21.29
2019-04-25T18:03:20.265Z,21.27
2019-04-25T18:05:54.245Z,21.22
2019-04-25T18:08:28.314Z,21.17
2019-04-25T18:11:01.590Z,21.11
2019-04-25T18:13:38.498Z,21.03
2019-04-25T18:16:12.880Z,20.95
2019-04-25T18:18:54.305Z,20.91
2019-04-25T18:21:28.579Z,20.82
2019-04-25T18:24:07.013Z,20.76
2019-04-25T18:26:55.076Z,20.69
2019-04-25T18:29:29.900Z,20.60
2019-04-25T18:32:04.155Z,20.56
2019-04-25T18:34:56.070Z,20.51
2019-04-25T18:37:45.042Z,20.43
2019-04-25T18:40:37.857Z,20.39
2019-04-25T18:43:16.350Z,20.30
2019-04-25T18:45:51.801Z,20.24
2019-04-25T18:48:25.653Z,20.17
2019-04-25T18:50:59.433Z,20.09
2019-04-25T18:53:53.512Z,20.01
2019-04-25T18:56:31.699Z,19.93
2019-04-25T18:59:13.395Z,19.82
2019-04-25T19:01:49.695Z,19.74
2019-04-25T19:04:25.211Z,19.65
2019-04-25T19:06:59.425Z,19.59
2019-04-25T19:09:33.990Z,19.53
2019-04-25T19:12:08.221Z,19.49
2019-04-25T19:14:43.099Z,19.42
2019-04-25T19:17:17.485Z,19.36
2019-04-25T19:19:51.966Z,19.30
2019-04-25T19:22:26.155Z,19.21
2019-04-25T19:24:59.364Z,19.14
2019-04-25T19:27:33.335Z,19.03
2019-04-25T19:30:11.016Z,18.97
2019-04-25T19:32:45.346Z,18.90
2019-04-25T19:35:19.228Z,18.85
2019-04-25T19:37:54.689Z,18.79
2019-04-25T19:40:40.820Z,18.70
2019-04-25T19:43:33.787Z,18.62
2019-04-25T19:46:07.609Z,18.55
2019-04-25T19:48:42.705Z,18.48
2019-04-25T19:51:16.534Z,18.46
2019-04-25T19:53:51.308Z,18.40
2019-04-25T19:56:25.579Z,18.33
2019-04-25T19:58:59.552Z,18.08
2019-04-25T20:01:33.402Z,18.02
2019-04-25T20:04:12.009Z,18.00
2019-04-25T20:07:03.920Z,17.98
2019-04-25T20:09:56.190Z,17.97
2019-04-25T20:12:40.894Z,17.95
2019-04-25T20:15:20.078Z,17.91
2019-04-25T20:17:54.385Z,17.88
2019-04-25T20:20:27.929Z,17.83
2019-04-25T20:23:02.009Z,17.79
2019-04-25T20:25:35.438Z,17.69
2019-04-25T20:28:09.585Z,17.64
2019-04-25T20:30:42.792Z,17.57
2019-04-25T20:33:17.267Z,17.53
2019-04-25T20:35:51.360Z,17.47
2019-04-25T20:38:24.869Z,17.43
2019-04-25T20:40:58.895Z,17.41
2019-04-25T20:43:32.979Z,17.34
2019-04-25T20:46:06.386Z,17.29
2019-04-25T20:48:40.535Z,17.24
2019-04-25T20:51:14.492Z,17.18
2019-04-25T20:53:48.910Z,17.14
2019-04-25T20:56:23.013Z,17.12
2019-04-25T20:58:56.096Z,17.07
2019-04-25T21:01:30.357Z,17.00
2019-04-25T21:04:13.095Z,16.93
2019-04-25T21:06:41.328Z,16.91
2019-04-25T21:09:15.459Z,16.89
2019-04-25T21:11:49.837Z,16.87
2019-04-25T21:14:25.339Z,16.83
2019-04-25T21:17:00.744Z,16.73
2019-04-25T21:19:36.233Z,16.71
2019-04-25T21:22:10.036Z,16.66
2019-04-25T21:24:44.032Z,16.62
2019-04-25T21:27:17.887Z,16.52
2019-04-25T21:29:52.139Z,16.42
2019-04-25T21:32:26.078Z,16.37
2019-04-25T21:35:00.119Z,16.35
2019-04-25T21:37:34.081Z,16.33
2019-04-25T21:40:09.398Z,16.32
2019-04-25T21:42:45.116Z,16.32
2019-04-25T21:45:19.154Z,16.27
2019-04-25T21:47:54.040Z,16.26
2019-04-25T21:50:29.015Z,16.20
2019-04-25T21:53:02.362Z,16.13
2019-04-25T21:55:37.286Z,16.11
2019-04-25T21:58:11.607Z,16.03
2019-04-25T22:00:47.600Z,15.99
2019-04-25T22:03:23.521Z,15.97
2019-04-25T22:05:58.600Z,15.95
2019-04-25T22:08:32.634Z,15.92
2019-04-25T22:11:06.645Z,15.91
2019-04-25T22:13:40.817Z,15.89
2019-04-25T22:16:15.219Z,15.81
2019-04-25T22:18:49.521Z,15.75
2019-04-25T22:21:23.129Z,15.72
2019-04-25T22:24:06.103Z,15.70
2019-04-25T22:26:34.202Z,15.65
2019-04-25T22:29:08.505Z,15.62
2019-04-25T22:31:52.549Z,15.62
2019-04-25T22:34:28.224Z,15.59
2019-04-25T22:37:02.162Z,15.51
2019-04-25T22:39:36.237Z,15.46
2019-04-25T22:42:10.495Z,15.43
2019-04-25T22:44:44.755Z,15.37
2019-04-25T22:47:18.633Z,15.33
2019-04-25T22:49:52.534Z,15.30
2019-04-25T22:52:25.896Z,15.26
2019-04-25T22:54:59.865Z,15.21
2019-04-25T22:57:34.809Z,15.15
2019-04-25T23:00:11.326Z,15.10
2019-04-25T23:02:47.185Z,15.07
2019-04-25T23:05:22.778Z,15.05
2019-04-25T23:07:56.758Z,15.04
2019-04-25T23:10:30.370Z,15.04
2019-04-25T23:13:04.640Z,15.02
2019-04-25T23:15:38.574Z,15.00
2019-04-25T23:18:13.402Z,15.00
2019-04-25T23:20:47.314Z,14.96
2019-04-25T23:23:21.261Z,14.92
2019-04-25T23:25:56.761Z,14.87
2019-04-25T23:28:32.561Z,14.83
2019-04-25T23:31:11.111Z,14.78
2019-04-25T23:33:45.341Z,14.75
2019-04-25T23:36:19.422Z,14.70
2019-04-25T23:38:53.371Z,14.70
2019-04-25T23:41:27.701Z,14.70
2019-04-25T23:44:01.637Z,14.67
2019-04-25T23:46:35.891Z,14.65
2019-04-25T23:49:10.621Z,14.64
2019-04-25T23:51:44.604Z,14.61
2019-04-25T23:54:18.709Z,14.61
2019-04-25T23:56:51.851Z,14.56
2019-04-25T23:59:25.949Z,14.52
